If you wish to contribute or participate in the discussions about articles you are invited to join SKYbrary as a registered user

 Actions

Khorramabad Airport

From SKYbrary Wiki

OICK
Airport
ICAO: OICK – IATA: KHD
Summary
Name Khorramabad Airport
Region Middle East
Territory Iran IR.gif
Location Khorramabad, Lorstan Province
Serving Khorramabad
Elevation 1,152.754 m
3,782 ft1,152.754 m
Coordinates 33° 26' 17.51" N, 48° 17' 8.92" E
Runways
Designator Length Width Surface ROPS
11/29 3200 m10,498.688 ft
45 m147.638 ft
ASP /


METAR
Observation OICK 161350Z 30004KT 9999 FEW090 20/05 Q1016
Station Khorram Abad
Date/Time 16 April 2019 13:50:00
Wind direction 300°
Wind speed 04 kts
Lowest cloud amount few clouds
Temperature 20°C
Dew point 5°C
Humidity 37%
QNH 1016 hPa
Weather condition n/a

Airport serving the city of Khorramabad, Iran.

Climatology

Semi-arid climate (Köppen climate classification BSh).

Maps

Terrain

Loading map...

Airport Layout

Loading map...


Accidents & Serious Incidents at or in vicinity of OICK

None on SKYbrary